This demonstration page uses our WeatherBlox Daily Observations layout. Learn more.

Left ArrowRight Arrow

Hourly Observations for April 29, 2015

Temp ( °F °C ) Dew Point ( °F °C ) Humidity (%) Winds ( mph kmh ) Pressure ( in mb ) Visibility ( mi km ) Precip ( " mm )
12:53 am 00:53 Clear 45 7.2 42 5.6 90 90 Calm 29.96 1015 10 16.0934 0 0
1:53 am 01:53 Clear 43 6.1 41 5 93 93 Calm 29.94 1014 10 16.0934 0 0
2:53 am 02:53 Clear 41 5 38 3.3 89 89 Calm 29.93 1013 10 16.0934 0 0
3:53 am 03:53 Clear 42 5.6 39 3.9 89 89 WNW 3 6 29.92 1013 10 16.0934 0 0
4:53 am 04:53 Clear 39 3.9 38 3.3 96 96 Calm 29.91 1013 7 11.26538 0 0
5:53 am 05:53 Clear 39 3.9 37 2.8 93 93 Calm 29.91 1013 7 11.26538 0 0
6:53 am 06:53 Sunny with Mist and Fog 38 3.3 37 2.8 97 97 Calm 29.91 1013 5 8.0467 0 0
7:53 am 07:53 Sunny 44 6.7 42 5.6 93 93 Calm 29.92 1013 10 16.0934 0 0
8:53 am 08:53 Sunny 50 10 43 6.1 77 77 Calm 29.92 1013 10 16.0934 0 0
9:53 am 09:53 Sunny 57 13.9 42 5.6 58 58 Calm 29.9 1013 10 16.0934 0 0
10:53 am 10:53 Sunny 61 16.1 42 5.6 50 50 NE 5 7 29.9 1013 10 16.0934 0 0
11:53 am 11:53 Sunny 63 17.2 40 4.4 43 43 VRB 5 7 29.89 1012 10 16.0934 0 0
12:53 pm 12:53 Sunny 64 17.8 40 4.4 41 41 undefined N/A 29.87 1012 10 16.0934 0 0
1:53 pm 13:53 Mostly Sunny 64 17.8 40 4.4 41 41 Calm 29.85 1011 10 16.0934 0 0
2:53 pm 14:53 Sunny 64 17.8 40 4.4 41 41 N 5 7 29.83 1010 10 16.0934 0 0
3:53 pm 15:53 Partly Cloudy 68 20 40 4.4 36 36 NNW 5 7 29.81 1010 10 16.0934 0 0
4:53 pm 16:53 Mostly Cloudy 69 20.6 43 6.1 39 39 NE 6 9 29.79 1009 10 16.0934 0 0
5:53 pm 17:53 Mostly Cloudy 65 18.3 41 5 42 42 NNW 6 9 29.8 1009 10 16.0934 0 0
6:53 pm 18:53 Partly Cloudy 65 18.3 41 5 42 42 N 7 11 29.8 1009 10 16.0934 0 0
7:53 pm 19:53 Cloudy 63 17.2 42 5.6 47 47 N 6 9 29.79 1009 10 16.0934 0 0
8:53 pm 20:53 Cloudy 61 16.1 42 5.6 50 50 NNW 8 13 29.8 1009 10 16.0934 0 0
9:53 pm 21:53 Cloudy 60 15.6 43 6.1 53 53 NNW 7 11 29.81 1010 10 16.0934 0 0
10:53 pm 22:53 Cloudy 58 14.4 44 6.7 60 60 NNW 6 9 29.8 1009 10 16.0934 0 0
11:53 pm 23:53 Cloudy 57 13.9 45 7.2 64 64 NW 5 7 29.8 1009 10 16.0934 0 0

Powered by AerisWeather